createdAt,value
2023-05-14T00:01:08.444Z,12.81
2023-05-14T00:02:21.013Z,12.83
2023-05-14T00:03:27.238Z,12.81
2023-05-14T00:04:34.386Z,12.78
2023-05-14T00:05:44.598Z,12.77
2023-05-14T00:06:49.879Z,12.76
2023-05-14T00:07:54.330Z,12.72
2023-05-14T00:08:58.994Z,12.71
2023-05-14T00:10:03.638Z,12.67
2023-05-14T00:11:09.175Z,12.70
2023-05-14T00:12:25.350Z,12.68
2023-05-14T00:13:36.129Z,12.67
2023-05-14T00:14:48.192Z,12.63
2023-05-14T00:15:52.259Z,12.66
2023-05-14T00:16:56.203Z,12.67
2023-05-14T00:18:01.112Z,12.66
2023-05-14T00:19:05.396Z,12.68
2023-05-14T00:20:12.339Z,12.65
2023-05-14T00:21:17.419Z,12.68
2023-05-14T00:22:27.384Z,12.70
2023-05-14T00:23:31.216Z,12.70
2023-05-14T00:24:36.037Z,12.67
2023-05-14T00:25:40.151Z,12.64
2023-05-14T00:26:43.916Z,12.63
2023-05-14T00:27:48.010Z,12.60
2023-05-14T00:28:52.418Z,12.59
2023-05-14T00:29:56.513Z,12.58
2023-05-14T00:31:00.774Z,12.56
2023-05-14T00:32:05.356Z,12.51
2023-05-14T00:33:12.051Z,12.51
2023-05-14T00:34:16.307Z,12.46
2023-05-14T00:35:21.761Z,12.51
2023-05-14T00:36:26.060Z,12.54
2023-05-14T00:37:30.065Z,12.51
2023-05-14T00:38:34.151Z,12.52
2023-05-14T00:39:38.111Z,12.52
2023-05-14T00:40:46.031Z,12.52
2023-05-14T00:41:50.762Z,12.53
2023-05-14T00:42:56.187Z,12.53
2023-05-14T00:44:01.061Z,12.47
2023-05-14T00:45:08.604Z,12.43
2023-05-14T00:46:14.398Z,12.41
2023-05-14T00:47:18.598Z,12.42
2023-05-14T00:48:25.444Z,12.38
2023-05-14T00:49:32.806Z,12.35
2023-05-14T00:50:37.661Z,12.34
2023-05-14T00:51:42.758Z,12.27
2023-05-14T00:52:47.995Z,12.25
2023-05-14T00:53:53.646Z,12.26
2023-05-14T00:54:59.229Z,12.26
2023-05-14T00:56:04.645Z,12.22
2023-05-14T00:57:09.322Z,12.18
2023-05-14T00:58:15.265Z,12.20
2023-05-14T00:59:19.544Z,12.18
2023-05-14T01:00:23.757Z,12.11
2023-05-14T01:01:33.421Z,12.10
2023-05-14T01:04:19.046Z,12.09
2023-05-14T01:06:03.156Z,12.13
2023-05-14T01:08:08.444Z,12.10
2023-05-14T01:10:08.330Z,12.01
2023-05-14T01:11:36.107Z,11.99
2023-05-14T01:12:59.785Z,11.98
2023-05-14T01:14:21.500Z,11.89
2023-05-14T01:15:34.760Z,11.89
2023-05-14T01:16:45.020Z,11.89
2023-05-14T01:18:09.110Z,11.90
2023-05-14T01:19:37.948Z,11.87
2023-05-14T01:20:42.221Z,11.81
2023-05-14T01:21:46.736Z,11.82
2023-05-14T01:23:00.384Z,11.79
2023-05-14T01:24:12.132Z,11.76
2023-05-14T01:25:31.558Z,11.78
2023-05-14T01:26:39.266Z,11.78
2023-05-14T01:28:19.393Z,11.74
2023-05-14T01:29:33.402Z,11.72
2023-05-14T01:31:37.622Z,11.72
2023-05-14T01:32:45.358Z,11.66
2023-05-14T01:33:51.681Z,11.69
2023-05-14T01:35:03.814Z,11.72
2023-05-14T01:36:15.877Z,11.72
2023-05-14T01:37:27.834Z,11.73
2023-05-14T01:38:39.836Z,11.70
2023-05-14T01:39:54.989Z,11.70
2023-05-14T01:41:28.151Z,11.69
2023-05-14T01:42:36.536Z,11.66
2023-05-14T01:43:41.473Z,11.67
2023-05-14T01:44:45.985Z,11.67
2023-05-14T01:45:56.848Z,11.64
2023-05-14T01:47:13.508Z,11.66
2023-05-14T01:48:30.122Z,11.63
2023-05-14T01:49:37.732Z,11.60
2023-05-14T01:50:42.936Z,11.56
2023-05-14T01:51:46.835Z,11.55
2023-05-14T01:52:53.594Z,11.56
2023-05-14T01:54:05.143Z,11.55
2023-05-14T01:55:12.859Z,11.53
2023-05-14T01:56:26.841Z,11.53
2023-05-14T01:57:31.428Z,11.54
2023-05-14T01:58:35.432Z,11.53
2023-05-14T01:59:47.037Z,11.51
2023-05-14T11:12:51.004Z,22.10
2023-05-14T11:14:13.417Z,22.14
2023-05-14T11:15:24.752Z,22.20
2023-05-14T11:16:32.117Z,22.27
2023-05-14T11:17:43.486Z,22.30
2023-05-14T11:19:05.714Z,22.35
2023-05-14T11:20:12.284Z,22.33
2023-05-14T11:21:19.633Z,22.30
2023-05-14T11:22:29.772Z,22.26
2023-05-14T11:23:45.841Z,22.23
2023-05-14T11:24:51.322Z,22.23
2023-05-14T11:26:22.963Z,22.18
2023-05-14T11:27:32.402Z,22.18
2023-05-14T11:28:37.670Z,22.20
2023-05-14T11:29:47.420Z,22.27
2023-05-14T11:30:56.331Z,22.30
2023-05-14T11:32:02.318Z,22.27
2023-05-14T11:33:07.553Z,22.36
2023-05-14T11:34:11.921Z,22.36
2023-05-14T11:35:16.831Z,22.28
2023-05-14T11:36:27.904Z,22.26
2023-05-14T11:37:34.956Z,22.30
2023-05-14T11:38:52.735Z,22.32
2023-05-14T11:40:19.725Z,22.45
2023-05-14T11:41:23.680Z,22.48
2023-05-14T11:42:28.800Z,22.57
2023-05-14T11:43:38.601Z,22.62
2023-05-14T11:44:54.262Z,22.70
2023-05-14T11:46:06.333Z,22.68
2023-05-14T11:47:21.776Z,22.67
2023-05-14T11:48:27.419Z,22.69
2023-05-14T11:49:37.584Z,22.71
2023-05-14T11:50:53.586Z,22.75
2023-05-14T11:52:56.216Z,22.80
2023-05-14T11:53:41.741Z,22.79
2023-05-14T11:54:54.782Z,22.82
2023-05-14T11:56:07.688Z,22.87
2023-05-14T11:57:21.306Z,22.82
2023-05-14T11:58:26.138Z,22.88
2023-05-14T11:59:41.146Z,22.97
2023-05-14T12:00:48.661Z,23.01
2023-05-14T12:01:54.967Z,22.97
2023-05-14T12:03:03.758Z,22.86
2023-05-14T12:04:07.916Z,22.83
2023-05-14T12:05:14.987Z,22.91
2023-05-14T12:06:22.129Z,22.95
2023-05-14T12:07:30.967Z,22.97
2023-05-14T12:08:34.658Z,22.91
2023-05-14T12:09:44.228Z,22.93
2023-05-14T12:10:49.034Z,22.93
2023-05-14T12:11:53.336Z,22.96
2023-05-14T12:12:57.250Z,22.86
2023-05-14T12:14:01.561Z,22.82
2023-05-14T12:15:19.258Z,22.75
2023-05-14T12:16:23.746Z,22.75
2023-05-14T12:17:34.655Z,22.77
2023-05-14T12:18:39.108Z,22.81
2023-05-14T12:19:46.298Z,22.76
2023-05-14T12:21:06.035Z,22.79
2023-05-14T12:22:18.470Z,22.85
2023-05-14T12:23:33.947Z,22.84
2023-05-14T12:24:39.513Z,22.90
2023-05-14T12:26:04.367Z,22.90
2023-05-14T12:27:10.879Z,22.89
2023-05-14T12:29:49.665Z,22.92
2023-05-14T12:31:00.737Z,22.92
2023-05-14T12:32:09.649Z,22.88
2023-05-14T12:33:14.803Z,22.82
2023-05-14T12:34:21.310Z,22.75
2023-05-14T12:35:25.726Z,22.74
2023-05-14T12:36:31.155Z,22.69
2023-05-14T12:37:37.433Z,22.68
2023-05-14T12:38:48.556Z,22.65
2023-05-14T12:39:57.408Z,22.61
2023-05-14T12:41:06.706Z,22.59
2023-05-14T12:42:14.477Z,22.57
2023-05-14T12:43:24.563Z,22.53
2023-05-14T12:44:40.048Z,22.54
2023-05-14T12:45:50.330Z,22.51
2023-05-14T12:47:11.757Z,22.52
2023-05-14T12:48:18.725Z,22.57
2023-05-14T12:49:23.626Z,22.58
2023-05-14T12:50:40.678Z,22.68
2023-05-14T12:51:47.759Z,22.72
2023-05-14T12:53:02.174Z,22.75
2023-05-14T12:54:13.403Z,22.73
2023-05-14T12:55:31.999Z,22.76
2023-05-14T12:56:38.067Z,22.82
2023-05-14T12:57:42.580Z,22.84
2023-05-14T12:58:49.187Z,22.89
2023-05-14T12:59:54.546Z,22.83
2023-05-14T13:00:58.607Z,22.80
2023-05-14T13:02:03.226Z,22.77
2023-05-14T13:03:13.507Z,22.73
2023-05-14T13:04:23.404Z,22.76
2023-05-14T13:05:30.579Z,22.80
2023-05-14T13:06:38.750Z,22.75
2023-05-14T13:07:44.365Z,22.81
2023-05-14T13:08:51.042Z,22.84
2023-05-14T13:10:02.765Z,22.79
2023-05-14T13:11:06.625Z,22.83
2023-05-14T13:12:10.654Z,22.84
2023-05-14T13:13:26.492Z,22.80
2023-05-14T13:14:30.235Z,22.80
2023-05-14T13:15:33.941Z,22.79
2023-05-14T13:16:38.249Z,22.79
2023-05-14T13:17:42.099Z,22.81
2023-05-14T13:18:47.560Z,22.80
2023-05-14T13:19:51.467Z,22.81
2023-05-14T13:20:55.108Z,22.81
2023-05-14T13:21:58.696Z,22.87
2023-05-14T13:23:02.303Z,22.80
2023-05-14T13:24:07.208Z,22.80
2023-05-14T13:25:11.374Z,22.86
2023-05-14T13:26:19.641Z,22.84
2023-05-14T13:27:32.068Z,22.83
2023-05-14T13:28:55.852Z,22.86
2023-05-14T13:30:14.348Z,22.84
2023-05-14T13:31:23.036Z,22.86
2023-05-14T13:32:32.084Z,22.85
2023-05-14T13:33:42.327Z,22.92
2023-05-14T13:34:55.283Z,22.96
2023-05-14T13:36:04.054Z,23.00
2023-05-14T13:37:23.103Z,22.95
2023-05-14T13:38:39.868Z,22.89
2023-05-14T13:39:57.664Z,22.89
2023-05-14T13:41:05.649Z,22.86
2023-05-14T13:42:14.995Z,22.82
2023-05-14T13:43:20.318Z,22.81
2023-05-14T13:44:27.141Z,22.84
2023-05-14T13:45:36.395Z,22.88
2023-05-14T13:46:45.316Z,22.89
2023-05-14T13:48:02.984Z,22.95
2023-05-14T13:49:14.966Z,23.02
2023-05-14T13:50:33.352Z,23.04
2023-05-14T13:52:10.520Z,23.02
2023-05-14T13:53:30.498Z,22.98
2023-05-14T13:54:43.385Z,22.98
2023-05-14T13:56:00.317Z,22.99
2023-05-14T13:57:24.678Z,22.96
2023-05-14T13:59:10.950Z,22.93
2023-05-14T14:00:22.668Z,22.93
2023-05-14T14:01:33.987Z,22.89
2023-05-14T14:02:50.109Z,22.84
2023-05-14T14:04:21.699Z,22.80
2023-05-14T14:05:37.522Z,22.76
2023-05-14T14:06:46.633Z,22.68
2023-05-14T14:08:00.954Z,22.62
2023-05-14T14:09:40.054Z,22.56
2023-05-14T14:10:47.428Z,22.48
2023-05-14T14:11:56.360Z,22.43
2023-05-14T14:13:03.672Z,22.47
2023-05-14T14:14:12.039Z,22.42
2023-05-14T14:15:32.146Z,22.44
2023-05-14T14:16:37.164Z,22.42
2023-05-14T14:17:50.420Z,22.39
2023-05-14T14:18:57.053Z,22.28
2023-05-14T14:20:19.810Z,22.26
2023-05-14T14:21:28.692Z,22.22
2023-05-14T14:24:01.140Z,22.29
2023-05-14T14:25:15.519Z,22.28
2023-05-14T14:26:30.430Z,22.19
2023-05-14T14:27:47.461Z,22.20
2023-05-14T14:28:58.259Z,22.13
2023-05-14T14:30:18.000Z,22.12
2023-05-14T14:31:25.561Z,22.08
2023-05-14T14:32:41.736Z,22.03
2023-05-14T14:33:48.242Z,22.05
2023-05-14T14:35:00.411Z,22.08
2023-05-14T14:36:06.212Z,22.06
2023-05-14T14:37:17.262Z,22.06
2023-05-14T14:38:44.828Z,22.00
2023-05-14T14:40:03.349Z,22.04
2023-05-14T14:41:18.556Z,21.99
2023-05-14T14:42:33.786Z,21.98
2023-05-14T14:43:41.351Z,21.98
2023-05-14T14:44:49.431Z,21.97
2023-05-14T14:45:58.098Z,21.97
2023-05-14T14:47:07.670Z,21.95
2023-05-14T14:48:46.698Z,22.00
2023-05-14T14:49:51.697Z,21.96
2023-05-14T14:50:58.616Z,21.97
2023-05-14T14:52:15.115Z,21.95
2023-05-14T14:53:40.582Z,22.00
2023-05-14T14:55:04.579Z,22.02
2023-05-14T14:56:34.884Z,21.99
2023-05-14T14:57:44.340Z,21.93
2023-05-14T14:58:54.002Z,21.88
2023-05-14T15:00:06.973Z,21.88
2023-05-14T15:01:19.742Z,21.84
2023-05-14T15:02:25.237Z,21.85
2023-05-14T15:03:32.884Z,21.83
2023-05-14T15:04:48.733Z,21.83
2023-05-14T15:06:08.773Z,21.82
2023-05-14T15:07:23.984Z,21.69
2023-05-14T15:08:32.117Z,21.71
2023-05-14T15:09:38.316Z,21.76
2023-05-14T15:10:45.075Z,21.72
2023-05-14T15:11:54.298Z,21.73
2023-05-14T15:13:01.828Z,21.80
2023-05-14T15:14:09.273Z,21.84
2023-05-14T15:15:31.207Z,21.80
2023-05-14T15:16:43.482Z,21.75
2023-05-14T15:17:55.301Z,21.77
2023-05-14T15:19:02.921Z,21.81
2023-05-14T15:21:43.931Z,21.81
2023-05-14T15:24:53.051Z,21.77
2023-05-14T15:25:57.003Z,21.71
2023-05-14T15:27:02.093Z,21.68
2023-05-14T15:28:11.168Z,21.67
2023-05-14T15:29:18.674Z,21.70
2023-05-14T15:30:36.136Z,21.64
2023-05-14T15:31:42.953Z,21.62
2023-05-14T15:32:50.711Z,21.66
2023-05-14T15:34:03.762Z,21.63
2023-05-14T15:35:11.069Z,21.68
2023-05-14T15:36:15.269Z,21.63
2023-05-14T15:37:19.334Z,21.63
2023-05-14T15:38:23.036Z,21.63
2023-05-14T15:39:28.417Z,21.56
2023-05-14T15:40:35.120Z,21.57
2023-05-14T15:41:39.155Z,21.57
2023-05-14T15:42:44.560Z,21.57
2023-05-14T15:43:51.188Z,21.54
2023-05-14T15:44:55.849Z,21.55
2023-05-14T15:45:59.900Z,21.57
2023-05-14T15:47:03.679Z,21.60
2023-05-14T15:48:11.808Z,21.57
2023-05-14T15:49:22.708Z,21.58
2023-05-14T15:50:33.173Z,21.53
2023-05-14T15:51:47.744Z,21.49
2023-05-14T15:52:55.835Z,21.46
2023-05-14T15:54:03.048Z,21.40
2023-05-14T15:55:12.126Z,21.42
2023-05-14T15:56:27.521Z,21.44
2023-05-14T15:57:40.670Z,21.40
2023-05-14T15:59:07.056Z,21.38
2023-05-14T16:00:22.329Z,21.39
2023-05-14T16:01:39.867Z,21.39
2023-05-14T16:02:46.140Z,21.41
2023-05-14T16:04:03.273Z,21.37
2023-05-14T16:05:17.032Z,21.39
2023-05-14T16:06:41.769Z,21.34
2023-05-14T16:07:55.741Z,21.35
2023-05-14T16:09:01.790Z,21.35
2023-05-14T16:10:06.981Z,21.32
2023-05-14T16:11:11.021Z,21.31
2023-05-14T16:12:18.048Z,21.33
2023-05-14T16:13:22.495Z,21.32
2023-05-14T16:14:26.743Z,21.29
2023-05-14T16:15:30.774Z,21.27
2023-05-14T16:16:34.482Z,21.30
2023-05-14T16:17:39.103Z,21.34
2023-05-14T16:18:43.603Z,21.36
2023-05-14T16:19:47.805Z,21.37
2023-05-14T16:20:52.256Z,21.38
2023-05-14T16:21:59.526Z,21.39
2023-05-14T16:23:03.385Z,21.35
2023-05-14T16:24:08.213Z,21.32
2023-05-14T16:25:15.638Z,21.31
2023-05-14T16:26:21.069Z,21.29
2023-05-14T16:27:26.286Z,21.25
2023-05-14T16:28:31.225Z,21.28
2023-05-14T16:29:35.218Z,21.31
2023-05-14T16:30:39.632Z,21.28
2023-05-14T16:31:44.357Z,21.28
2023-05-14T16:32:49.689Z,21.27
2023-05-14T16:33:56.583Z,21.30
2023-05-14T16:35:02.768Z,21.21
2023-05-14T16:36:14.542Z,21.23
2023-05-14T16:37:20.573Z,21.23
2023-05-14T16:38:24.765Z,21.23
2023-05-14T16:39:28.991Z,21.23
2023-05-14T16:40:33.055Z,21.20
2023-05-14T16:41:36.886Z,21.23
2023-05-14T16:42:40.836Z,21.20
2023-05-14T16:43:45.657Z,21.13
2023-05-14T16:44:50.047Z,21.12
2023-05-14T16:45:56.658Z,21.08
2023-05-14T16:47:01.155Z,21.07
2023-05-14T16:48:05.516Z,21.10
2023-05-14T16:49:09.511Z,21.08
2023-05-14T16:50:13.841Z,21.07
2023-05-14T16:51:18.154Z,21.05
2023-05-14T16:52:22.240Z,21.04
2023-05-14T16:53:26.722Z,21.05
2023-05-14T16:54:31.166Z,21.04
2023-05-14T16:55:35.184Z,21.06
2023-05-14T16:56:39.581Z,21.03
2023-05-14T16:57:43.867Z,21.02
2023-05-14T16:58:49.654Z,21.03
2023-05-14T16:59:54.108Z,21.03
2023-05-14T17:00:58.104Z,21.01
2023-05-14T17:02:01.958Z,21.00
2023-05-14T17:03:07.805Z,20.98
2023-05-14T17:04:12.530Z,20.99
2023-05-14T17:05:17.108Z,21.00
2023-05-14T17:06:22.158Z,20.97
2023-05-14T17:07:26.259Z,20.95
2023-05-14T17:08:33.656Z,20.93
2023-05-14T17:09:37.965Z,20.91
2023-05-14T17:10:41.801Z,20.89
2023-05-14T17:11:45.993Z,20.90
2023-05-14T17:12:50.008Z,20.90
2023-05-14T17:13:54.594Z,20.87
2023-05-14T17:15:04.495Z,20.88
2023-05-14T17:16:09.588Z,20.88
2023-05-14T17:17:13.302Z,20.88
2023-05-14T17:18:17.859Z,20.81
2023-05-14T17:19:21.987Z,20.80
2023-05-14T17:20:25.822Z,20.82
2023-05-14T17:21:29.572Z,20.82
2023-05-14T17:22:33.212Z,20.83
2023-05-14T17:23:37.144Z,20.82
2023-05-14T17:24:43.457Z,20.80
2023-05-14T17:25:47.286Z,20.81
2023-05-14T17:26:51.051Z,20.84
2023-05-14T17:27:54.685Z,20.81
2023-05-14T17:28:59.228Z,20.80
2023-05-14T17:30:05.183Z,20.81
2023-05-14T17:31:09.683Z,20.78
2023-05-14T17:32:13.615Z,20.77
2023-05-14T17:33:18.213Z,20.75
2023-05-14T17:34:22.215Z,20.77
2023-05-14T17:35:26.626Z,20.76
2023-05-14T17:36:32.119Z,20.77
2023-05-14T17:37:37.057Z,20.76
2023-05-14T17:38:41.969Z,20.75
2023-05-14T17:39:46.056Z,20.75
2023-05-14T17:40:50.046Z,20.74
2023-05-14T17:41:54.054Z,20.73
2023-05-14T17:42:59.531Z,20.72
2023-05-14T17:44:03.179Z,20.70
2023-05-14T17:45:09.027Z,20.67
2023-05-14T17:46:15.730Z,20.65
2023-05-14T17:47:20.837Z,20.56
2023-05-14T17:48:25.475Z,20.55
2023-05-14T17:49:29.332Z,20.53
2023-05-14T17:50:33.191Z,20.45
2023-05-14T17:51:37.305Z,20.43
2023-05-14T17:52:44.487Z,20.41
2023-05-14T17:53:48.451Z,20.37
2023-05-14T17:54:52.716Z,20.33
2023-05-14T17:56:00.045Z,20.29
2023-05-14T17:57:04.687Z,20.28
2023-05-14T17:58:08.927Z,20.25
2023-05-14T17:59:24.712Z,20.22
2023-05-14T18:00:28.543Z,20.23
2023-05-14T18:01:32.556Z,20.19
2023-05-14T18:02:40.675Z,20.16
2023-05-14T18:03:44.918Z,20.17
2023-05-14T18:04:48.623Z,20.16
2023-05-14T18:05:52.810Z,20.10
2023-05-14T18:06:58.449Z,20.09
2023-05-14T18:08:02.633Z,20.02
2023-05-14T18:09:06.315Z,20.01
2023-05-14T18:10:10.574Z,19.98
2023-05-14T18:11:14.470Z,19.92
2023-05-14T18:12:19.052Z,19.91
2023-05-14T18:13:23.275Z,19.86
2023-05-14T18:14:27.195Z,19.80
2023-05-14T18:15:31.679Z,19.71
2023-05-14T18:16:41.936Z,19.68
2023-05-14T18:17:49.813Z,19.63
2023-05-14T18:18:53.940Z,19.63
2023-05-14T18:19:59.125Z,19.65
2023-05-14T18:21:03.261Z,19.55
2023-05-14T18:22:07.475Z,19.56
2023-05-14T18:23:11.894Z,19.53
2023-05-14T18:24:16.575Z,19.56
2023-05-14T18:25:21.404Z,19.57
2023-05-14T18:26:27.700Z,19.52
2023-05-14T18:27:34.509Z,19.51
2023-05-14T18:28:38.813Z,19.47
2023-05-14T18:29:45.487Z,19.42
2023-05-14T18:30:49.971Z,19.36
2023-05-14T18:31:54.027Z,19.33
2023-05-14T18:33:02.440Z,19.27
2023-05-14T18:34:07.053Z,19.21
2023-05-14T18:35:12.927Z,19.16
2023-05-14T18:36:18.779Z,19.12
2023-05-14T18:37:23.027Z,19.09
2023-05-14T18:38:28.062Z,19.08
2023-05-14T18:39:33.565Z,19.08
2023-05-14T18:40:38.274Z,18.98
2023-05-14T18:41:47.139Z,19.01
2023-05-14T18:42:51.702Z,18.97
2023-05-14T18:44:07.838Z,19.00
2023-05-14T18:45:12.330Z,18.97
2023-05-14T18:46:16.478Z,18.92
2023-05-14T18:47:20.840Z,18.92
2023-05-14T18:48:25.998Z,18.88
2023-05-14T18:49:30.258Z,18.87
2023-05-14T18:50:40.811Z,18.83
2023-05-14T18:51:44.978Z,18.75
2023-05-14T18:52:49.246Z,18.69
2023-05-14T18:53:53.232Z,18.63
2023-05-14T18:54:57.360Z,18.57
2023-05-14T18:56:01.179Z,18.58
2023-05-14T18:57:05.511Z,18.59
2023-05-14T18:58:09.826Z,18.55
2023-05-14T18:59:13.555Z,18.55
2023-05-14T19:00:20.072Z,18.55
2023-05-14T19:01:25.977Z,18.60
2023-05-14T19:02:30.110Z,18.61
2023-05-14T19:03:34.833Z,18.60
2023-05-14T19:04:51.240Z,18.65
2023-05-14T19:05:56.871Z,18.64
2023-05-14T19:07:01.026Z,18.66
2023-05-14T19:08:05.474Z,18.67
2023-05-14T19:09:10.982Z,18.68
2023-05-14T19:10:15.238Z,18.64
2023-05-14T19:11:19.301Z,18.63
2023-05-14T19:12:26.884Z,18.64
2023-05-14T19:13:30.785Z,18.61
2023-05-14T19:14:34.600Z,18.57
2023-05-14T19:15:38.945Z,18.56
2023-05-14T19:16:42.940Z,18.57
2023-05-14T19:17:46.800Z,18.53
2023-05-14T19:18:50.880Z,18.53
2023-05-14T19:19:54.860Z,18.52
2023-05-14T19:20:59.117Z,18.55
2023-05-14T19:22:02.855Z,18.53
2023-05-14T19:23:06.549Z,18.55
2023-05-14T19:24:10.268Z,18.56
2023-05-14T19:25:14.602Z,18.53
2023-05-14T19:26:23.425Z,18.51
2023-05-14T19:27:28.942Z,18.51
2023-05-14T19:28:33.922Z,18.50
2023-05-14T19:29:39.012Z,18.48
2023-05-14T19:30:43.559Z,18.46
2023-05-14T19:31:47.941Z,18.46
2023-05-14T19:32:52.443Z,18.39
2023-05-14T19:33:56.900Z,18.39
2023-05-14T19:35:03.089Z,18.38
2023-05-14T19:36:08.066Z,18.39
2023-05-14T19:37:12.385Z,18.31
2023-05-14T19:38:16.478Z,18.38
2023-05-14T19:39:21.181Z,18.39
2023-05-14T19:40:25.253Z,18.37
2023-05-14T19:41:30.573Z,18.33
2023-05-14T19:42:34.720Z,18.33
2023-05-14T19:43:39.487Z,18.30
2023-05-14T19:44:44.226Z,18.29
2023-05-14T19:45:48.711Z,18.29
2023-05-14T19:46:53.062Z,18.29
2023-05-14T19:47:59.933Z,18.33
2023-05-14T19:49:04.059Z,18.32
2023-05-14T19:50:09.500Z,18.33
2023-05-14T19:51:13.645Z,18.34
2023-05-14T19:52:17.546Z,18.33
2023-05-14T19:53:22.437Z,18.30
2023-05-14T19:54:26.890Z,18.28
2023-05-14T19:55:31.056Z,18.31
2023-05-14T19:56:35.596Z,18.23
2023-05-14T19:57:40.596Z,18.23
2023-05-14T19:58:46.011Z,18.20
2023-05-14T19:59:53.853Z,18.19
2023-05-14T20:00:59.075Z,18.19
2023-05-14T20:02:04.761Z,18.13
2023-05-14T20:03:10.344Z,18.11
2023-05-14T20:04:16.707Z,18.09
2023-05-14T20:05:21.533Z,18.12
2023-05-14T20:06:26.120Z,18.12
2023-05-14T20:07:30.403Z,18.14
2023-05-14T20:08:34.601Z,18.06
2023-05-14T20:09:38.867Z,18.03
2023-05-14T20:10:45.737Z,18.01
2023-05-14T20:11:49.684Z,17.98
